Time;durP1;ratioP1;P1;durP2;ratioP2;P2;SDS_P1;SDS_P2;PMS_P1;PMS_P2;Temp;Humidity;BMP_temperature;BMP_pressure;BME280_temperature;BME280_humidity;BME280_pressure;Samples;Min_cycle;Max_cycle;Signal;HPM_P1;HPM_P2
2022/09/29 09:55:26;;;;;;;2.47;1.40;;;9.30;99.90;;;;;;5135526;27;20291;-86
2022/09/29 09:58:27;;;;;;;2.40;1.60;;;9.30;99.90;;;;;;5135347;27;20723;-81
2022/09/29 10:01:11;;;;;;;1.33;1.23;;;9.40;99.90;;;;;;5122059;28;20192;-84
2022/09/29 10:03:37;;;;;;;1.47;1.10;;;9.40;99.90;;;;;;5133451;28;20176;-85
2022/09/29 11:17:38;;;;;;;1.00;1.00;;;9.80;99.90;;;;;;5135412;27;20656;-83
2022/09/29 11:20:10;;;;;;;1.40;1.20;;;9.60;99.90;;;;;;5116610;28;20182;-82
2022/09/29 11:22:54;;;;;;;1.23;1.10;;;9.60;99.90;;;;;;5135355;28;20519;-81
2022/09/29 11:25:32;;;;;;;2.00;0.90;;;9.70;99.90;;;;;;5134548;28;20736;-83
2022/09/29 11:31:29;;;;;;;0.70;0.70;;;9.80;99.90;;;;;;5136304;27;20278;-82
2022/09/29 11:34:28;;;;;;;1.27;0.97;;;9.90;99.90;;;;;;5134590;28;20613;-82
2022/09/29 11:37:05;;;;;;;0.83;0.80;;;10.00;99.90;;;;;;5134542;27;20159;-82
2022/09/29 11:39:37;;;;;;;1.23;0.70;;;9.90;99.90;;;;;;5134177;28;20222;-82
2022/09/29 11:42:21;;;;;;;0.90;0.63;;;10.00;99.90;;;;;;5133604;28;20174;-84
2022/09/29 11:44:59;;;;;;;1.37;1.00;;;10.00;99.90;;;;;;5133514;28;20204;-82
2022/09/29 11:47:37;;;;;;;0.90;0.70;;;10.10;99.90;;;;;;5132653;28;20171;-82
2022/09/29 11:50:09;;;;;;;0.60;0.60;;;10.10;99.90;;;;;;5134838;27;20238;-82
2022/09/29 11:52:49;;;;;;;1.97;0.73;;;10.00;99.90;;;;;;5134346;27;20156;-81
2022/09/29 11:55:26;;;;;;;0.60;0.60;;;10.00;99.90;;;;;;5134691;27;20195;-83
2022/09/29 11:58:04;;;;;;;0.70;0.70;;;10.10;99.90;;;;;;5133113;28;20168;-83
2022/09/29 12:00:59;;;;;;;0.40;0.40;;;10.20;99.90;;;;;;5132973;28;20175;-83
2022/09/29 12:03:30;;;;;;;0.80;0.70;;;10.10;99.90;;;;;;5134264;27;20246;-82
2022/09/29 12:06:14;;;;;;;0.77;0.77;;;10.10;99.90;;;;;;5134202;27;20198;-82
2022/09/29 12:09:07;;;;;;;1.30;0.80;;;10.10;99.90;;;;;;5132863;28;20637;-83
2022/09/29 12:12:09;;;;;;;2.83;0.87;;;10.00;99.90;;;;;;5132646;28;20183;-83
2022/09/29 12:15:14;;;;;;;0.60;0.60;;;10.00;99.90;;;;;;5148607;28;20194;-83
2022/09/29 12:17:45;;;;;;;0.57;0.57;;;10.00;99.90;;;;;;5134087;28;20159;-83
2022/09/29 12:20:33;;;;;;;1.13;1.03;;;10.00;99.90;;;;;;5132996;28;20179;-82
2022/09/29 12:23:02;;;;;;;0.80;0.80;;;10.00;99.90;;;;;;5132360;28;20189;-82
2022/09/29 12:25:33;;;;;;;1.93;1.20;;;10.00;99.90;;;;;;5133961;27;20190;-83
2022/09/29 12:28:05;;;;;;;1.83;1.27;;;10.00;99.90;;;;;;5132336;28;20171;-82
2022/09/29 12:30:55;;;;;;;4.17;1.57;;;9.90;99.90;;;;;;5133564;27;20203;-83
2022/09/29 12:33:35;;;;;;;1.43;1.20;;;10.00;99.90;;;;;;5132954;28;20164;-81
2022/09/29 12:36:42;;;;;;;1.13;1.03;;;10.10;99.90;;;;;;5134316;27;20191;-82
2022/09/29 12:39:34;;;;;;;1.20;0.80;;;10.10;99.90;;;;;;5133911;28;20516;-83
2022/09/29 12:42:37;;;;;;;0.80;0.80;;;10.10;99.90;;;;;;5124078;27;20163;-84
2022/09/29 12:45:03;;;;;;;0.87;0.83;;;10.10;99.90;;;;;;5119233;28;20296;-82
2022/09/29 12:47:38;;;;;;;1.30;1.20;;;10.00;99.90;;;;;;5120624;28;20620;-83
2022/09/29 12:50:28;;;;;;;1.10;0.90;;;10.00;99.90;;;;;;5119806;28;20202;-83
2022/09/29 12:53:06;;;;;;;0.67;0.57;;;9.90;99.90;;;;;;5119658;28;20195;-85
2022/09/29 12:55:40;;;;;;;3.50;0.80;;;9.80;99.90;;;;;;5133956;28;20187;-79
2022/09/29 12:58:13;;;;;;;0.97;0.90;;;9.80;99.90;;;;;;5133543;28;20178;-80
